Latest Weather Observations for Mornington Island Airport

IDQ60801

Issued at 6:32 am EST Sunday 1 March 2015 (issued every 30 minutes, with the page automatically refreshed every 10 minutes)

About weather observations | Map of weather stations | Latest weather observations for QLD | Other Formats
Station Details ID: 029182 Name: MORNINGTON ISLAND AIRPORT Lat: -16.66 Lon: 139.17 Height: 9.0 m
Data from the previous 72 hours. | See also: Recent months at Mornington Island Airport
Date/Time
EST
Temp
°C
App
Temp
°C
Dew
Point
Rel
Hum
%
Delta-T
°C
Wind Press
QNH
hPa
Press
MSL
hPa
Rain
since 9 am
mm
Dir
 
Spd
km/h
Gust
km/h
Spd
kts
Gust
kts
01/06:30am 26.6 31.1 23.9 85 1.9 NE 7 9 4 5 1005.3 1005.2 0.0
01/06:00am 26.9 31.8 23.6 82 2.3 N 4 6 2 3 1005.2 1005.1 0.0
01/05:30am 27.1 31.2 23.3 80 2.6 NNE 7 9 4 5 1004.7 1004.6 0.0
01/05:00am 27.5 31.6 23.3 78 2.9 NW 7 9 4 5 1004.8 1004.7 0.0
01/04:30am 27.2 31.6 23.4 80 2.6 NNE 6 9 3 5 1005.0 1004.9 0.0
01/04:00am 27.3 31.5 23.5 80 2.6 NNE 7 9 4 5 1005.0 1004.9 0.0
01/03:30am 27.6 31.4 23.4 78 2.9 N 9 9 5 5 1004.7 1004.6 0.0
01/03:00am 27.8 31.6 23.4 77 3.0 NNW 9 11 5 6 1004.8 1004.7 0.0
01/02:30am 27.9 31.7 23.5 77 3.0 NNW 9 11 5 6 1004.8 1004.7 0.0
01/02:00am 27.5 31.9 23.5 79 2.7 NNW 6 7 3 4 1005.1 1005.0 0.0
01/01:30am 27.7 31.9 23.5 78 2.9 N 7 9 4 5 1005.3 1005.2 0.0
01/01:00am 28.1 32.1 23.7 77 3.0 N 9 11 5 6 1005.5 1005.4 0.0
01/12:30am 27.8 32.3 23.6 78 2.9 NNE 6 7 3 4 1005.7 1005.6 0.0
01/12:00am 27.8 32.2 23.8 79 2.8 N 7 9 4 5 1006.2 1006.1 0.0
 
Date/Time
EST
Temp
°C
App
Temp
°C
Dew
Point
Rel
Hum
%
Delta-T
°C
Wind Press
QNH
hPa
Press
MSL
hPa
Rain
since 9 am
mm
Dir
 
Spd
km/h
Gust
km/h
Spd
kts
Gust
kts
28/11:30pm 27.8 31.8 23.8 79 2.8 NNE 9 11 5 6 1006.4 1006.3 0.0
28/11:00pm 27.8 31.7 23.6 78 2.9 NE 9 11 5 6 1006.7 1006.6 0.0
28/10:30pm 28.1 32.6 23.7 77 3.0 NE 6 9 3 5 1006.7 1006.6 0.0
28/10:00pm 28.1 32.3 23.5 76 3.2 NNE 7 9 4 5 1006.5 1006.4 0.0
28/09:30pm 28.2 31.9 23.3 75 3.4 NE 9 9 5 5 1006.1 1006.0 0.0
28/09:00pm 28.6 32.3 23.3 73 3.6 NE 9 11 5 6 1005.9 1005.8 0.0
28/08:30pm 28.9 32.9 23.1 71 4.0 N 7 11 4 6 1005.7 1005.6 0.0
28/08:00pm 29.2 33.0 23.4 71 4.0 N 9 11 5 6 1005.4 1005.3 0.0
28/07:30pm 29.3 32.9 23.0 69 4.3 N 9 13 5 7 1005.1 1005.0 0.0
28/07:00pm 29.8 33.0 23.0 67 4.7 N 11 17 6 9 1004.8 1004.7 0.0
28/06:30pm 30.5 33.0 23.2 65 5.0 N 15 20 8 11 1005.0 1004.9 0.0
28/06:00pm 30.9 33.1 23.3 64 5.3 N 17 20 9 11 1004.9 1004.8 0.0
28/05:30pm 31.3 33.6 23.4 63 5.5 NNW 17 20 9 11 1004.5 1004.4 0.0
28/05:00pm 31.8 34.5 24.1 63 5.4 NNW 17 24 9 13 1004.3 1004.2 0.0
28/04:30pm 31.9 33.9 24.0 63 5.5 NW 20 24 11 13 1004.6 1004.5 0.0
28/04:00pm 31.8 34.0 23.9 63 5.5 NNW 19 24 10 13 1004.5 1004.4 0.0
28/03:30pm 31.4 33.5 23.8 64 5.3 NNW 19 24 10 13 1004.8 1004.7 0.0
28/03:00pm 31.5 33.3 23.3 61 5.7 NNW 19 24 10 13 1005.2 1005.1 0.0
28/02:30pm 31.3 33.7 24.2 66 5.0 NNW 19 22 10 12 1005.7 1005.6 0.0
28/02:00pm 31.2 35.7 25.8 73 3.8 NNW 13 19 7 10 1006.2 1006.1 0.0
28/01:30pm 29.1 33.0 24.9 78 2.9 N 13 19 7 10 1006.7 1006.6 0.0
28/01:00pm 30.7 32.6 24.4 69 4.4 NNW 22 28 12 15 1007.1 1007.0 0.0
28/12:30pm 31.2 32.2 22.8 61 5.8 NNW 22 28 12 15 1007.3 1007.2 0.0
28/12:00pm 32.1 34.1 23.9 62 5.7 NNW 20 26 11 14 1007.6 1007.5 0.0
28/11:30am 31.8 33.8 23.9 63 5.5 NW 20 28 11 15 1007.6 1007.5 0.0
28/11:00am 31.7 34.4 23.5 62 5.7 NW 15 20 8 11 1007.7 1007.6 0.0
28/10:30am 31.1 34.0 23.2 63 5.4 NW 13 17 7 9 1007.6 1007.5 0.0
28/10:00am 30.8 33.5 23.5 65 5.1 NNW 15 19 8 10 1007.4 1007.3 0.0
28/09:30am 31.2 34.3 23.6 64 5.3 NW 13 17 7 9 1007.3 1007.2 0.0
28/09:00am 31.1 34.2 24.2 66 4.8 NNW 15 20 8 11 1006.9 1006.8 0.2
28/08:30am 30.5 32.7 23.2 65 5.0 NNW 17 20 9 11 1006.4 1006.3 0.2
28/08:00am 30.2 32.5 23.4 67 4.7 NNW 17 20 9 11 1006.6 1006.5 0.2
28/07:30am 29.5 31.6 23.7 71 4.0 NNW 19 24 10 13 1006.0 1005.9 0.2
28/07:00am 29.0 32.1 24.1 75 3.4 NNW 15 20 8 11 1006.1 1006.0 0.2
28/06:30am 28.6 32.7 23.9 75 3.2 N 9 13 5 7 1006.2 1006.1 0.2
28/06:00am 28.3 32.3 23.7 76 3.2 NNW 9 9 5 5 1005.8 1005.7 0.2
28/05:30am 28.6 32.6 23.7 75 3.4 NNW 9 13 5 7 1005.4 1005.3 0.2
28/05:00am 28.5 32.6 23.9 76 3.2 N 9 13 5 7 1005.2 1005.1 0.2
28/04:30am 28.7 32.7 23.8 75 3.4 N 9 11 5 6 1005.2 1005.1 0.2
28/04:00am 28.8 32.3 23.5 73 3.7 N 11 15 6 8 1004.9 1004.8 0.2
28/03:30am 29.0 32.3 23.2 71 4.0 N 11 15 6 8 1004.9 1004.8 0.2
28/03:00am 29.0 32.6 23.7 73 3.7 NNW 11 17 6 9 1005.1 1005.0 0.2
28/02:30am 29.2 32.2 23.4 71 4.0 N 13 17 7 9 1005.3 1005.2 0.2
28/02:00am 29.1 32.4 23.8 73 3.7 N 13 19 7 10 1005.8 1005.7 0.2
28/01:30am 28.7 32.7 23.8 75 3.4 N 9 13 5 7 1006.5 1006.4 0.2
28/01:00am 27.8 32.3 24.0 80 2.6 NNE 7 7 4 4 1006.9 1006.8 0.2
28/12:30am 27.7 31.9 24.1 81 2.5 NNE 9 11 5 6 1007.1 1007.0 0.2
28/12:00am 28.0 32.7 24.0 79 2.8 NNE 6 9 3 5 1007.2 1007.1 0.2
 
Date/Time
EST
Temp
°C
App
Temp
°C
Dew
Point
Rel
Hum
%
Delta-T
°C
Wind Press
QNH
hPa
Press
MSL
hPa
Rain
since 9 am
mm
Dir
 
Spd
km/h
Gust
km/h
Spd
kts
Gust
kts
27/11:30pm 28.2 32.9 24.0 78 2.9 NE 6 7 3 4 1007.1 1007.0 0.2
27/11:00pm 28.3 32.5 24.1 78 2.9 NNE 9 9 5 5 1007.1 1007.0 0.2
27/10:30pm 28.5 33.0 23.9 76 3.2 NNE 7 9 4 5 1007.0 1006.9 0.2
27/10:00pm 28.7 33.1 23.8 75 3.4 N 7 9 4 5 1006.6 1006.5 0.2
27/09:30pm 28.7 32.8 24.0 76 3.3 NNE 9 11 5 6 1006.6 1006.5 0.2
27/09:00pm 29.1 33.5 23.5 72 3.9 N 6 7 3 4 1006.5 1006.4 0.2
27/08:30pm 29.2 33.1 23.6 72 3.9 N 9 11 5 6 1006.1 1006.0 0.2
27/08:00pm 29.4 33.3 23.6 71 4.0 NNE 9 11 5 6 1005.9 1005.8 0.2
27/07:30pm 29.9 33.9 23.1 67 4.7 N 7 11 4 6 1005.5 1005.4 0.2
27/07:00pm 30.4 33.3 23.1 65 5.0 N 13 17 7 9 1005.5 1005.4 0.2
27/06:30pm 31.0 33.6 22.6 61 5.7 NNW 13 19 7 10 1005.4 1005.3 0.2
27/06:00pm 31.3 33.1 22.6 60 6.0 NNW 17 24 9 13 1005.1 1005.0 0.2
27/05:30pm 32.1 34.4 22.8 58 6.4 NNW 15 19 8 10 1004.6 1004.5 0.2
27/05:00pm 31.9 34.1 23.2 60 6.0 NNW 17 22 9 12 1004.4 1004.3 0.2
27/04:30pm 31.7 34.1 23.0 60 6.0 NW 15 20 8 11 1004.3 1004.2 0.2
27/04:00pm 32.1 34.3 23.3 59 6.1 NW 17 20 9 11 1004.2 1004.1 0.2
27/03:30pm 32.0 34.3 23.5 60 5.9 NW 17 22 9 12 1004.4 1004.3 0.2
27/03:00pm 31.8 34.0 23.9 63 5.5 NW 19 24 10 13 1004.8 1004.7 0.2
27/02:30pm 32.1 34.7 23.9 62 5.7 WNW 17 22 9 12 1005.0 1004.9 0.2
27/02:00pm 31.8 34.9 23.6 62 5.7 WNW 13 17 7 9 1005.5 1005.4 0.2
27/01:30pm 31.6 34.6 23.4 61 5.7 WNW 13 17 7 9 1006.0 1005.9 0.2
27/01:00pm 31.7 34.7 24.0 63 5.4 WNW 15 20 8 11 1006.7 1006.6 0.2
27/12:30pm 31.4 34.8 24.0 65 5.2 WNW 13 19 7 10 1007.3 1007.2 0.2
27/12:00pm 31.6 34.1 23.2 61 5.8 WNW 15 19 8 10 1007.6 1007.5 0.2
27/11:30am 31.4 33.6 23.2 61 5.7 NW 17 20 9 11 1007.7 1007.6 0.2
27/11:00am 31.3 33.7 24.2 66 5.0 NNW 19 24 10 13 1007.6 1007.5 0.2
27/10:30am 31.0 33.1 23.1 63 5.4 NNW 17 20 9 11 1007.8 1007.7 0.2
27/10:00am 31.1 33.5 23.7 64 5.1 NNW 17 24 9 13 1008.1 1008.0 0.2
27/09:30am 31.4 34.0 24.0 65 5.2 NNW 17 24 9 13 1008.0 1007.9 0.0
27/09:00am 30.9 32.8 23.5 64 5.1 NNW 19 24 10 13 1007.7 1007.6 3.2
27/08:30am 30.3 32.5 23.2 65 4.9 NNW 17 20 9 11 1007.5 1007.4 3.2
27/08:00am 29.6 32.5 23.8 71 4.0 NNW 15 19 8 10 1007.2 1007.1 3.2
27/07:30am 29.4 33.2 24.0 72 3.7 NNW 11 17 6 9 1006.7 1006.6 3.2
27/07:00am 28.2 32.1 23.6 76 3.2 N 9 11 5 6 1006.5 1006.4 3.2
27/06:30am 28.3 32.5 23.4 75 3.4 N 7 9 4 5 1006.0 1005.9 3.2
27/06:00am 28.7 32.5 24.0 76 3.3 NNW 11 17 6 9 1005.6 1005.5 3.2
27/05:30am 28.5 31.8 23.9 76 3.2 NNW 13 17 7 9 1005.4 1005.3 3.2
27/05:00am 28.6 31.9 23.9 75 3.3 NNW 13 19 7 10 1005.2 1005.1 3.2
27/04:30am 28.6 32.5 24.2 77 3.1 N 11 15 6 8 1005.0 1004.9 3.2
27/04:00am 28.5 31.9 24.1 77 3.1 NNW 13 17 7 9 1005.0 1004.9 3.2
27/03:30am 28.3 32.0 23.9 77 3.0 NNW 11 15 6 8 1005.2 1005.1 3.2
27/03:00am 28.2 32.7 24.6 81 2.5 N 9 13 5 7 1005.2 1005.1 3.2
27/02:30am 28.0 32.4 24.4 81 2.5 NNW 9 11 5 6 1005.5 1005.4 3.2
27/02:00am 28.2 32.8 24.2 79 2.8 N 7 11 4 6 1005.8 1005.7 3.2
27/01:30am 28.5 32.4 24.3 78 2.9 N 11 15 6 8 1006.0 1005.9 3.2
27/01:00am 28.2 32.5 24.2 79 2.8 N 9 13 5 7 1006.0 1005.9 3.2
27/12:30am 27.8 32.3 24.6 83 2.2 NNW 9 11 5 6 1006.2 1006.1 3.2
27/12:00am 27.4 32.0 24.7 85 1.9 N 9 11 5 6 1006.7 1006.6 3.2
 
Date/Time
EST
Temp
°C
App
Temp
°C
Dew
Point
Rel
Hum
%
Delta-T
°C
Wind Press
QNH
hPa
Press
MSL
hPa
Rain
since 9 am
mm
Dir
 
Spd
km/h
Gust
km/h
Spd
kts
Gust
kts
26/11:30pm 27.6 32.5 24.6 84 2.1 NNE 7 9 4 5 1006.9 1006.8 3.2
26/11:00pm 27.5 31.9 24.5 84 2.1 NNE 9 11 5 6 1006.9 1006.8 3.2
26/10:30pm 27.8 32.7 24.6 83 2.2 NE 7 9 4 5 1006.7 1006.6 3.2
26/10:00pm 28.0 33.1 24.6 82 2.4 NE 6 7 3 4 1006.5 1006.4 3.2
26/09:30pm 28.1 32.9 24.5 81 2.5 NE 7 9 4 5 1006.1 1006.0 3.2
26/09:00pm 28.3 33.1 24.5 80 2.6 ENE 7 9 4 5 1005.8 1005.7 3.2
26/08:30pm 28.7 33.6 24.7 79 2.8 NE 7 11 4 6 1005.7 1005.6 3.2
26/08:00pm 29.0 33.5 24.6 77 3.1 NE 9 11 5 6 1005.4 1005.3 3.2
26/07:30pm 29.4 33.8 24.5 75 3.4 NNE 9 13 5 7 1005.4 1005.3 3.2
26/07:00pm 29.9 33.6 24.5 73 3.8 N 13 17 7 9 1005.0 1004.9 3.2
26/06:30pm 30.5 34.2 24.6 70 4.1 N 13 17 7 9 1004.8 1004.7 3.2
26/06:00pm 30.9 34.2 23.8 66 4.9 N 13 19 7 10 1004.4 1004.3 3.2
26/05:30pm 31.1 34.1 24.7 68 4.5 N 17 24 9 13 1003.6 1003.5 3.2
26/05:00pm 30.6 33.9 23.8 67 4.7 N 13 15 7 8 1003.4 1003.3 3.2
26/04:30pm 31.4 36.1 25.5 71 4.2 NNW 11 15 6 8 1003.5 1003.4 3.2
26/04:00pm 30.5 34.4 24.9 72 3.9 NW 13 19 7 10 1003.9 1003.8 3.2
26/03:30pm 29.5 33.1 25.0 77 3.2 WNW 15 20 8 11 1004.1 1004.0 3.2
26/03:00pm 32.4 35.1 24.7 64 5.4 NW 19 24 10 13 1004.3 1004.2 0.0
26/02:30pm 32.7 36.2 25.5 66 5.1 NW 17 24 9 13 1004.8 1004.7 0.0
26/02:00pm 32.6 35.1 24.4 62 5.8 NNW 19 26 10 14 1005.4 1005.3 0.0
26/01:30pm 32.8 35.3 24.8 62 5.6 NNW 20 28 11 15 1005.7 1005.6 0.0
26/01:00pm 32.6 35.6 24.6 62 5.6 NNW 17 28 9 15 1006.1 1006.0 0.0
26/12:30pm 31.9 33.8 23.7 62 5.7 NNW 20 30 11 16 1006.6 1006.5 0.0
26/12:00pm 31.8 34.0 23.9 63 5.5 NNW 19 24 10 13 1007.1 1007.0 0.0
26/11:30am 31.8 34.0 23.3 60 5.9 N 17 22 9 12 1007.5 1007.4 0.0
26/11:00am 31.7 33.9 24.0 63 5.4 NNW 19 24 10 13 1008.0 1007.9 0.0
26/10:30am 31.5 34.9 24.1 65 5.2 NNW 13 20 7 11 1008.3 1008.2 0.0
26/10:00am 31.3 34.5 24.4 66 4.8 NNW 15 20 8 11 1008.1 1008.0 0.0
26/09:30am 31.4 35.3 24.8 68 4.6 NNW 13 19 7 10 1007.8 1007.7 0.0
26/09:00am 30.7 34.2 23.6 66 4.9 NNW 11 13 6 7 1007.8 1007.7 0.0
26/08:30am 30.2 34.7 24.6 72 3.9 N 9 13 5 7 1007.4 1007.3 0.0
26/08:00am 28.6 33.6 24.8 80 2.7 NNE 7 11 4 6 1007.2 1007.1 0.0
26/07:30am 27.7 32.4 24.3 82 2.4 NE 7 11 4 6 1007.0 1006.9 0.0
26/07:00am 27.3 32.2 24.6 85 1.9 ENE 7 9 4 5 1006.5 1006.4 0.0

Other Formats:

Comma delimited format used in spreadsheet applications
http://www.bom.gov.au/fwo/IDQ60801/IDQ60801.94254.axf

JavaScript Object Notation format (JSON) in row-major order
http://www.bom.gov.au/fwo/IDQ60801/IDQ60801.94254.json